Flight Track Log - Related Links

Times and Time Zones

All times are in EDT time to prevent confusion due to time zone crossing. See the EJA727 flight status page for this flight to view local times or setup timezone preferences in your user account.

Time Position Orientation Groundspeed Altitude Reporting Facility
EDT Latitude Longitude Course Direction KTS MPH feet Rate Location/Type
Thu 05:25:57 PM 42.7131 -86.2242 248° West 220 253 4,500  Level Chicago Center
Thu 05:26:59 PM 42.6878 -86.3150 249° West 247 284 8,700 2,758 Climbing Chicago Center
Thu 05:28:01 PM 42.6614 -86.4131 250° West 272 313 10,200 1,887 Climbing Chicago Center
Thu 05:29:03 PM 42.6258 -86.5300 248° West 331 381 12,600 2,323 Climbing Chicago Center
Thu 05:30:05 PM 42.5072 -86.5819 198° South 391 450 15,000 2,112 Climbing Chicago Center
Thu 05:31:08 PM 42.3964 -86.6069 189° South 402 463 17,000 2,736 Climbing Chicago Center
Thu 05:32:10 PM 42.2864 -86.6328 190° South 387 445 20,700 2,177 Climbing Chicago Center
Thu 05:33:12 PM 42.1736 -86.6619 191° South 407 468 21,500 1,113 Climbing Chicago Center
Thu 05:34:14 PM 42.0639 -86.7339 206° Southwest 422 486 23,000 871 Climbing Chicago Center
Thu 05:35:16 PM 42.0006 -86.8603 236° Southwest 430 495 23,300 871 Climbing Chicago Center
Thu 05:36:18 PM 41.9892 -87.0119 264° West 414 476 24,800 1,597 Climbing Chicago Center
Thu 05:37:20 PM 41.9767 -87.1956 265° West 416 479 26,600 1,500 Climbing Chicago Center
Thu 05:38:22 PM 41.9675 -87.3472 265° West 414 476 27,900 677 Climbing Chicago Center
Thu 05:39:24 PM 41.9539 -87.5003 263° West 417 480 28,000 912 Climbing Chicago Center
Thu 05:40:27 PM 41.9203 -87.6542 254° West 448 516 29,800 960 Climbing Chicago Center
Thu 05:41:29 PM 41.8336 -87.8156 234° Southwest 451 519 30,000 97 Climbing Chicago Center
Thu 05:42:31 PM 41.7717 -87.9561 239° Southwest 447 514 30,000  Level Chicago Center
Thu 05:43:33 PM 41.7486 -88.1097 259° West 429 494 30,000  Level Chicago Center
Thu 05:44:35 PM 41.7406 -88.2644 266° West 423 487 30,000 532 Level Chicago Center
Thu 05:45:37 PM 41.7294 -88.4483 265° West 421 484 31,100 1,016 Climbing Chicago Center
Thu 05:46:39 PM 41.7206 -88.5983 266° West 414 476 32,100 774 Climbing Chicago Center
Thu 05:47:41 PM 41.7111 -88.7517 265° West 416 479 32,700 432 Climbing Chicago Center
Thu 05:48:44 PM 41.7008 -88.9047 265° West 417 480 33,000 240 Climbing Chicago Center
Thu 05:49:46 PM 41.6903 -89.0597 265° West 419 482 33,200 387 Climbing Chicago Center
Thu 05:50:48 PM 41.6792 -89.2444 265° West 420 483 33,800 581 Climbing Chicago Center
Thu 05:51:50 PM 41.6692 -89.3967 265° West 416 479 34,400 629 Climbing Chicago Center
Thu 05:52:52 PM 41.6597 -89.5503 265° West 412 474 35,100 677 Climbing Chicago Center
Thu 05:53:54 PM 41.6478 -89.7006 264° West 408 470 35,800 677 Climbing Chicago Center
Thu 05:54:56 PM 41.6375 -89.8497 265° West 405 466 36,500 677 Climbing Chicago Center
Thu 05:55:58 PM 41.6267 -90.0011 265° West 409 471 37,200 726 Climbing Chicago Center
Thu 05:57:00 PM 41.5983 -90.1797 258° West 415 478 38,000 384 Climbing Chicago Center
Thu 05:58:03 PM 41.5819 -90.3361 262° West 434 499 38,000  Level Chicago Center
Thu 05:59:05 PM 41.5719 -90.4889 265° West 420 483 38,000  Level Chicago Center
Thu 06:00:07 PM 41.5606 -90.6481 265° West 420 483 38,000  Level Chicago Center
Thu 06:01:09 PM 41.5497 -90.8019 265° West 420 483 38,000  Level Chicago Center
Thu 06:02:11 PM 41.5378 -90.9569 264° West 423 487 38,000  Level Chicago Center
Thu 06:03:14 PM 41.5239 -91.1450 264° West 425 489 38,000  Level Chicago Center
Thu 06:04:15 PM 41.5136 -91.2978 265° West 426 490 38,000  Level Chicago Center
Thu 06:05:30 PM 41.4978 -91.4900 264° West 430 495 38,000  Level Chicago Center
Thu 06:06:32 PM 41.4858 -91.6464 264° West 428 493 38,000  Level Chicago Center
Thu 06:07:34 PM 41.4728 -91.8044 264° West 431 496 38,000  Level Chicago Center
Thu 06:08:36 PM 41.4572 -91.9917 264° West 428 493 38,000  Level Chicago Center
Thu 06:09:39 PM 41.4439 -92.1483 264° West 429 494 38,000  Level Chicago Center
Thu 06:10:40 PM 41.4311 -92.3094 264° West 434 499 38,000  Level Chicago Center
Thu 06:11:42 PM 41.4161 -92.4889 264° West 434 499 38,000  Level Chicago Center
Thu 06:12:42 PM 41.4022 -92.6467 263° West 433 498 38,000  Level Minneapolis Center
Thu 06:13:45 PM 41.3886 -92.8042 263° West 433 498 38,000  Level Minneapolis Center
Thu 06:14:47 PM 41.3736 -92.9622 263° West 435 501 38,000  Level Minneapolis Center
Thu 06:15:49 PM 41.3594 -93.1203 263° West 435 501 38,000  Level Minneapolis Center
Thu 06:16:51 PM 41.3417 -93.3100 263° West 436 502 38,000  Level Minneapolis Center
Thu 06:17:53 PM 41.3264 -93.4675 263° West 435 501 38,000  Level Minneapolis Center
Thu 06:18:55 PM 41.3128 -93.6222 263° West 430 495 38,000  Level Minneapolis Center
Thu 06:19:57 PM 41.2986 -93.7800 263° West 433 498 38,000  Level Minneapolis Center
Thu 06:20:59 PM 41.2822 -93.9400 262° West 438 504 38,000  Level Minneapolis Center
Thu 06:22:01 PM 41.2619 -94.1308 262° West 439 505 38,000  Level Minneapolis Center
Thu 06:23:04 PM 41.2472 -94.2819 263° West 440 506 38,000  Level Minneapolis Center
Thu 06:24:06 PM 41.2300 -94.4428 262° West 440 506 38,000  Level Minneapolis Center
Thu 06:25:08 PM 41.2097 -94.6364 262° West 440 506 38,000  Level Minneapolis Center
Thu 06:26:10 PM 41.1922 -94.7983 262° West 442 509 38,000  Level Minneapolis Center
Thu 06:27:12 PM 41.1739 -94.9614 262° West 444 511 38,000  Level Minneapolis Center
Thu 06:28:14 PM 41.1553 -95.1233 261° West 444 511 38,000  Level Minneapolis Center
Thu 06:29:16 PM 41.1369 -95.2856 262° West 443 510 38,000  Level Minneapolis Center
Thu 06:30:18 PM 41.1181 -95.4533 262° West 455 524 38,000  Level Minneapolis Center
Thu 06:31:20 PM 41.0981 -95.6172 261° West 452 520 38,000  Level Minneapolis Center
Thu 06:32:23 PM 41.0742 -95.8133 261° West 447 514 38,000  Level Minneapolis Center
Thu 06:33:25 PM 41.0556 -95.9806 262° West 451 519 38,000  Level Minneapolis Center
Thu 06:34:27 PM 41.0356 -96.1469 261° West 452 520 38,000  Level Minneapolis Center
Thu 06:35:29 PM 41.0169 -96.3125 262° West 452 520 38,000  Level Minneapolis Center
Thu 06:36:31 PM 40.9961 -96.4783 261° West 455 524 38,000  Level Minneapolis Center
Thu 06:37:33 PM 40.9761 -96.6431 261° West 453 521 38,000  Level Minneapolis Center
Thu 06:38:35 PM 40.9550 -96.8078 260° West 454 522 38,000  Level Minneapolis Center
Thu 06:39:37 PM 40.9344 -96.9725 261° West 455 524 38,000  Level Minneapolis Center
Thu 06:40:40 PM 40.9089 -97.1689 260° West 453 521 38,000  Level Minneapolis Center
Thu 06:41:42 PM 40.8883 -97.3344 261° West 456 525 38,000  Level Minneapolis Center
Thu 06:42:44 PM 40.8653 -97.5056 260° West 454 522 38,000  Level Minneapolis Center
Thu 06:43:46 PM 40.8433 -97.6722 260° West 458 527 38,000  Level Minneapolis Center
Thu 06:44:48 PM 40.8214 -97.8372 260° West 457 526 38,000  Level Minneapolis Center
Thu 06:45:50 PM 40.7972 -98.0019 259° West 456 525 38,000  Level Minneapolis Center
Thu 06:46:52 PM 40.7761 -98.1686 261° West 458 527 38,000  Level Minneapolis Center
Thu 06:47:54 PM 40.7481 -98.3686 260° West 459 528 38,000  Level Minneapolis Center
Thu 06:48:56 PM 40.7236 -98.5369 259° West 463 533 38,000  Level Minneapolis Center
Thu 06:49:58 PM 40.6997 -98.7050 259° West 463 533 38,000  Level Minneapolis Center
Thu 06:51:01 PM 40.6764 -98.8739 260° West 464 534 38,000  Level Minneapolis Center
Thu 06:52:03 PM 40.6517 -99.0419 259° West 464 534 38,000  Level Minneapolis Center
Thu 06:53:05 PM 40.6275 -99.2094 259° West 463 533 38,000  Level Minneapolis Center
Thu 06:54:19 PM 40.5978 -99.4117 259° West 466 536 38,000  Level Minneapolis Center
Thu 06:55:21 PM 40.5722 -99.5800 259° West 468 539 38,000  Level Minneapolis Center
Thu 06:56:23 PM 40.5428 -99.7817 259° West 467 537 38,000  Level Minneapolis Center
Thu 06:57:26 PM 40.5169 -99.9503 259° West 470 541 38,000  Level Minneapolis Center
Thu 06:58:28 PM 40.4903 -100.1189 258° West 470 541 38,000  Level Minneapolis Center
Thu 06:59:33 PM 40.4639 -100.2881 258° West 471 542 38,000  Level Minneapolis Center
Thu 07:00:35 PM 40.4386 -100.4561 259° West 471 542 38,000  Level Minneapolis Center
Thu 07:01:40 PM 40.4028 -100.6592 257° West 471 542 38,000  Level Denver Center
Thu 07:02:41 PM 40.3753 -100.8222 258° West 475 547 38,000  Level Denver Center
Thu 07:03:43 PM 40.3456 -101.0125 258° West 475 547 38,000  Level Denver Center
Thu 07:04:45 PM 40.3186 -101.1756 258° West 476 548 38,000  Level Denver Center
Thu 07:05:47 PM 40.2917 -101.3375 258° West 475 547 38,000  Level Denver Center
Thu 07:06:49 PM 40.2603 -101.5261 258° West 474 545 38,000  Level Denver Center
Thu 07:07:50 PM 40.2331 -101.6867 258° West 472 543 38,000  Level Denver Center
Thu 07:08:52 PM 40.2003 -101.8761 257° West 477 549 38,000  Level Denver Center
Thu 07:09:54 PM 40.1728 -102.0375 257° West 476 548 38,000  Level Denver Center
Thu 07:10:56 PM 40.1394 -102.2272 257° West 477 549 38,000  Level Denver Center
Thu 07:11:58 PM 40.1106 -102.3894 257° West 479 551 38,000  Level Denver Center
Thu 07:12:59 PM 40.0822 -102.5525 257° West 480 552 38,000  Level Denver Center
Thu 07:14:01 PM 40.0478 -102.7450 257° West 480 552 38,000  Level Denver Center
Thu 07:15:03 PM 40.0164 -102.9150 256° West 483 556 38,000  Level Denver Center
Thu 07:16:05 PM 39.9850 -103.0839 256° West 481 554 38,000  Level Denver Center
Thu 07:17:07 PM 39.9542 -103.2542 257° West 483 556 38,000  Level Denver Center
Thu 07:18:09 PM 39.9219 -103.4239 256° West 485 558 38,000  Level Denver Center
Thu 07:19:11 PM 39.8836 -103.6264 256° West 481 554 38,000  Level Denver Center
Thu 07:20:13 PM 39.8525 -103.7983 257° West 493 567 38,000  Level Denver Center
Thu 07:21:14 PM 39.8197 -103.9669 256° West 482 555 38,000  Level Denver Center
Thu 07:22:16 PM 39.7861 -104.1372 256° West 490 564 38,000  Level Denver Center
Thu 07:23:18 PM 39.7539 -104.3025 256° West 476 548 38,000  Level Denver Center
Thu 07:24:20 PM 39.7206 -104.4733 256° West 497 572 38,000  Level Denver Center
Thu 07:25:22 PM 39.6903 -104.6706 259° West 463 533 38,000  Level Denver Center
Thu 07:26:24 PM 39.6700 -104.8392 261° West 487 560 38,000  Level Denver Center
Thu 07:27:26 PM 39.6508 -105.0097 262° West 471 542 38,000  Level Denver Center
Thu 07:28:28 PM 39.6325 -105.1803 262° West 476 548 38,000 -1,016 Level Denver Center
Thu 07:29:30 PM 39.6103 -105.3828 262° West 472 543 35,900 -2,274 Descending Denver Center
Thu 07:30:32 PM 39.5919 -105.5458 262° West 460 529 33,300 -2,516 Descending Denver Center
Thu 07:31:34 PM 39.5719 -105.7175 261° West 484 557 30,700 -2,516 Descending Denver Center
Thu 07:32:36 PM 39.5558 -105.8886 263° West 478 550 28,100 -1,790 Descending Denver Center
Thu 07:33:38 PM 39.5364 -106.0586 262° West 478 550 27,000 -1,645 Descending Denver Center
Thu 07:34:40 PM 39.5544 -106.2364 278° West 477 549 24,700 -2,565 Descending Denver Center
Thu 07:35:42 PM 39.5828 -106.3917 283° West 451 519 21,700 -2,274 Descending Denver Center
Thu 07:36:44 PM 39.5861 -106.5578 272° West 441 507 20,000 -1,597 Descending Denver Center
Thu 07:37:46 PM 39.5214 -106.7064 241° Southwest 424 488 18,400 -2,032 Descending Denver Center
Thu 07:38:48 PM 39.4706 -106.8206 240° Southwest 389 448 15,800 -2,468 Descending Denver Center
Thu 07:39:50 PM 39.4242 -106.9261 240° Southwest 359 413 13,300 -2,226 Descending Denver Center
Thu 07:40:52 PM 39.3444 -106.9642 200° South 295 339 11,200 -1,887 Descending Denver Center
Thu 07:41:54 PM 39.2950 -106.9186 145° Southeast 250 288 9,400 -1,452 Descending Denver Center
Thu 07:42:56 PM 39.2506 -106.8833 148° Southeast 212 244 8,200 -1,161 Descending Denver Center
Thu 07:44:00 PM 39.2167 -106.8667 176° South  Level FlightAware Approximate

Login

Don't have an account? Register now (free) for customized features, flight alerts, and more!